Time,TemperatureF,DewpointF,PressureIn,WindDirection,WindDirectionDegrees,WindSpeedMPH,WindSpeedGustMPH,Humidity,HourlyPrecipIn,Conditions,Clouds,dailyrainin,SoftwareType,DateUTC
2013-03-31 00:02:00,59.7,57.7,30.05,South,186,0.0,0.0,93,0.00,,CLR,0.00,VWS V13.01,2013-03-31 05:02:00,
2013-03-31 00:07:00,59.6,57.6,30.05,South,186,0.0,0.0,93,0.00,,CLR,0.00,VWS V13.01,2013-03-31 05:07:00,
2013-03-31 00:12:00,59.5,57.5,30.05,South,186,0.0,0.0,93,0.00,,CLR,0.00,VWS V13.01,2013-03-31 05:12:00,
2013-03-31 00:17:00,59.3,57.3,30.05,South,186,0.0,0.0,93,0.00,,CLR,0.00,VWS V13.01,2013-03-31 05:17:00,
2013-03-31 00:22:00,59.0,57.0,30.05,South,186,0.0,0.0,93,0.00,,CLR,0.00,VWS V13.01,2013-03-31 05:22:00,
2013-03-31 00:27:00,59.0,57.0,30.05,South,186,0.0,0.0,93,0.00,,CLR,0.00,VWS V13.01,2013-03-31 05:27:00,
2013-03-31 00:32:00,59.0,57.0,30.05,South,186,0.0,0.0,93,0.00,,CLR,0.00,VWS V13.01,2013-03-31 05:32:00,
2013-03-31 00:38:00,59.0,57.3,30.05,South,186,0.0,0.0,94,0.00,,CLR,0.00,VWS V13.01,2013-03-31 05:38:00,
2013-03-31 00:43:00,58.9,57.2,30.04,South,186,0.0,0.0,94,0.00,,CLR,0.00,VWS V13.01,2013-03-31 05:43:00,
2013-03-31 00:48:00,58.8,57.1,30.04,South,186,0.0,0.0,94,0.00,,CLR,0.00,VWS V13.01,2013-03-31 05:48:00,
2013-03-31 00:53:00,58.6,56.9,30.04,South,186,0.0,0.0,94,0.00,,CLR,0.00,VWS V13.01,2013-03-31 05:53:00,
2013-03-31 00:58:00,58.5,56.8,30.03,South,186,0.0,0.0,94,0.00,,CLR,0.00,VWS V13.01,2013-03-31 05:58:00,
2013-03-31 01:03:00,58.6,56.9,30.03,South,186,0.0,0.0,94,0.00,,CLR,0.00,VWS V13.01,2013-03-31 06:03:00,
2013-03-31 01:08:00,58.7,57.3,30.03,South,186,0.0,0.0,95,0.00,,CLR,0.00,VWS V13.01,2013-03-31 06:08:00,
2013-03-31 01:13:00,59.0,57.6,30.02,South,186,0.0,0.0,95,0.00,,CLR,0.00,VWS V13.01,2013-03-31 06:13:00,
2013-03-31 01:19:00,59.0,57.6,30.03,South,186,0.0,0.0,95,0.00,,CLR,0.00,VWS V13.01,2013-03-31 06:19:00,
2013-03-31 01:24:00,59.0,57.6,30.02,South,186,0.0,0.0,95,0.00,,CLR,0.00,VWS V13.01,2013-03-31 06:24:00,
2013-03-31 01:29:00,59.0,57.6,30.02,South,186,0.0,0.0,95,0.00,,CLR,0.00,VWS V13.01,2013-03-31 06:29:00,
2013-03-31 01:34:00,59.0,57.6,30.02,South,186,0.0,0.0,95,0.00,,CLR,0.00,VWS V13.01,2013-03-31 06:34:00,
2013-03-31 01:39:00,59.3,57.9,30.02,South,186,0.0,0.0,95,0.00,,CLR,0.00,VWS V13.01,2013-03-31 06:39:00,
2013-03-31 01:44:00,59.5,58.1,30.02,South,186,0.0,0.0,95,0.00,,CLR,0.00,VWS V13.01,2013-03-31 06:44:00,
2013-03-31 01:49:00,59.7,58.3,30.02,South,186,0.0,0.0,95,0.00,,CLR,0.00,VWS V13.01,2013-03-31 06:49:00,
2013-03-31 01:54:00,59.7,58.3,30.02,South,186,0.0,0.0,95,0.00,,CLR,0.00,VWS V13.01,2013-03-31 06:54:00,
2013-03-31 01:59:00,59.6,58.2,30.01,South,186,0.0,0.0,95,0.00,,CLR,0.00,VWS V13.01,2013-03-31 06:59:00,
2013-03-31 02:04:00,59.5,58.1,30.01,South,186,0.0,0.0,95,0.00,,,0.00,VWS V13.01,2013-03-31 07:04:00,
2013-03-31 02:09:00,59.2,57.8,30.02,South,186,0.0,0.0,95,0.00,,,0.00,VWS V13.01,2013-03-31 07:09:00,
2013-03-31 02:14:00,59.0,57.6,30.01,South,186,0.0,0.0,95,0.00,,,0.00,VWS V13.01,2013-03-31 07:14:00,
2013-03-31 02:19:00,59.0,57.6,30.01,South,186,0.0,0.0,95,0.00,,,0.00,VWS V13.01,2013-03-31 07:19:00,
2013-03-31 02:24:00,59.0,57.6,30.01,South,186,0.0,0.0,95,0.00,,,0.00,VWS V13.01,2013-03-31 07:24:00,
2013-03-31 02:29:00,58.9,57.5,30.01,South,186,0.0,0.0,95,0.00,,,0.00,VWS V13.01,2013-03-31 07:29:00,
2013-03-31 02:34:00,58.6,57.2,30.01,South,186,0.0,0.0,95,0.00,,,0.00,VWS V13.01,2013-03-31 07:34:00,
2013-03-31 02:40:00,58.4,57.0,30.01,South,186,0.0,0.0,95,0.00,,,0.00,VWS V13.01,2013-03-31 07:40:00,
2013-03-31 02:45:00,58.3,56.9,30.01,South,186,0.0,0.0,95,0.00,,,0.00,VWS V13.01,2013-03-31 07:45:00,
2013-03-31 02:50:00,58.1,56.7,30.01,South,186,0.0,0.0,95,0.00,,,0.00,VWS V13.01,2013-03-31 07:50:00,
2013-03-31 02:55:00,58.0,56.6,30.01,South,186,0.0,0.0,95,0.00,,,0.00,VWS V13.01,2013-03-31 07:55:00,
2013-03-31 03:00:00,57.9,56.5,30.01,South,186,0.0,0.0,95,0.00,,,0.00,VWS V13.01,2013-03-31 08:00:00,
2013-03-31 03:05:00,57.9,56.5,30.01,South,186,0.0,0.0,95,0.00,,FEW038,0.00,VWS V13.01,2013-03-31 08:05:00,
2013-03-31 03:10:00,57.8,56.4,30.01,South,186,0.0,0.0,95,0.00,,FEW038,0.00,VWS V13.01,2013-03-31 08:10:00,
2013-03-31 03:15:00,57.7,56.3,30.01,South,186,0.0,0.0,95,0.00,,FEW038,0.00,VWS V13.01,2013-03-31 08:15:00,
2013-03-31 03:20:00,57.6,56.2,30.00,South,186,0.0,0.0,95,0.00,,FEW038,0.00,VWS V13.01,2013-03-31 08:20:00,
2013-03-31 03:25:00,57.5,56.1,30.00,South,186,0.0,0.0,95,0.00,,FEW038,0.00,VWS V13.01,2013-03-31 08:25:00,
2013-03-31 03:30:00,57.4,56.0,30.00,South,186,0.0,0.0,95,0.00,,FEW038,0.00,VWS V13.01,2013-03-31 08:30:00,
2013-03-31 03:35:00,57.2,55.8,30.00,South,186,0.0,0.0,95,0.00,,FEW038,0.00,VWS V13.01,2013-03-31 08:35:00,
2013-03-31 03:40:00,57.1,55.7,30.00,South,186,0.0,0.0,95,0.00,,FEW038,0.00,VWS V13.01,2013-03-31 08:40:00,
2013-03-31 03:45:00,57.0,55.6,30.00,South,186,0.0,0.0,95,0.00,,FEW038,0.00,VWS V13.01,2013-03-31 08:45:00,
2013-03-31 03:51:00,56.9,55.5,30.00,South,186,0.0,0.0,95,0.00,,FEW038,0.00,VWS V13.01,2013-03-31 08:51:00,
2013-03-31 04:12:00,57.0,55.6,29.99,South,186,0.0,0.0,95,0.00,,FEW038,0.00,VWS V13.01,2013-03-31 09:12:00,
2013-03-31 04:17:00,57.0,55.6,29.99,South,186,0.0,0.0,95,0.00,,FEW038,0.00,VWS V13.01,2013-03-31 09:17:00,
2013-03-31 04:22:00,57.0,55.6,29.99,South,186,0.0,0.0,95,0.00,,FEW038,0.00,VWS V13.01,2013-03-31 09:22:00,
2013-03-31 04:27:00,56.9,55.5,29.99,South,186,0.0,0.0,95,0.00,,FEW038,0.00,VWS V13.01,2013-03-31 09:27:00,
2013-03-31 04:32:00,56.9,55.5,29.99,South,186,0.0,0.0,95,0.00,,,0.00,VWS V13.01,2013-03-31 09:32:00,
2013-03-31 04:37:00,56.8,55.4,29.98,South,186,0.0,0.0,95,0.00,,,0.00,VWS V13.01,2013-03-31 09:37:00,
2013-03-31 04:42:00,56.6,55.2,29.98,South,186,0.0,0.0,95,0.00,,,0.00,VWS V13.01,2013-03-31 09:42:00,
2013-03-31 04:47:00,56.6,55.2,29.98,South,186,0.0,0.0,95,0.00,,,0.00,VWS V13.01,2013-03-31 09:47:00,
2013-03-31 04:52:00,56.6,55.5,29.98,South,186,0.0,0.0,96,0.00,,,0.00,VWS V13.01,2013-03-31 09:52:00,
2013-03-31 04:57:00,56.8,55.7,29.98,South,186,0.0,0.0,96,0.00,,,0.00,VWS V13.01,2013-03-31 09:57:00,
2013-03-31 05:02:00,57.2,56.1,29.98,South,186,0.0,0.0,96,0.00,,FEW028,0.00,VWS V13.01,2013-03-31 10:02:00,
2013-03-31 05:08:00,57.7,56.6,29.98,South,186,0.0,0.0,96,0.00,,FEW028,0.00,VWS V13.01,2013-03-31 10:08:00,
2013-03-31 05:13:00,58.3,57.2,29.98,South,186,0.0,0.0,96,0.00,,FEW028,0.00,VWS V13.01,2013-03-31 10:13:00,
2013-03-31 05:18:00,59.0,57.9,29.98,South,186,0.0,0.0,96,0.00,,FEW028,0.00,VWS V13.01,2013-03-31 10:18:00,
2013-03-31 05:23:00,59.0,57.9,29.98,South,186,0.0,0.0,96,0.00,,FEW028,0.00,VWS V13.01,2013-03-31 10:23:00,
2013-03-31 05:28:00,59.3,58.2,29.98,South,186,0.0,0.0,96,0.00,,FEW028,0.00,VWS V13.01,2013-03-31 10:28:00,
2013-03-31 05:33:00,59.4,58.3,29.98,South,186,0.0,0.0,96,0.00,,FEW028,0.00,VWS V13.01,2013-03-31 10:33:00,
2013-03-31 05:38:00,59.5,58.4,29.98,South,186,0.0,0.0,96,0.00,,FEW028,0.00,VWS V13.01,2013-03-31 10:38:00,
2013-03-31 05:43:00,59.6,58.5,29.98,South,186,0.0,0.0,96,0.00,,FEW028,0.00,VWS V13.01,2013-03-31 10:43:00,
2013-03-31 05:48:00,59.8,58.7,29.98,South,186,0.0,0.0,96,0.00,,FEW028,0.00,VWS V13.01,2013-03-31 10:48:00,
2013-03-31 05:53:00,59.8,58.7,29.98,South,186,0.0,0.0,96,0.00,,FEW028,0.00,VWS V13.01,2013-03-31 10:53:00,
2013-03-31 05:58:00,59.8,58.7,29.98,South,186,0.0,0.0,96,0.00,,FEW028,0.00,VWS V13.01,2013-03-31 10:58:00,
2013-03-31 06:03:00,60.0,58.9,29.98,South,186,0.0,0.0,96,0.00,,SCT031,0.00,VWS V13.01,2013-03-31 11:03:00,
2013-03-31 06:08:00,60.1,59.0,29.98,South,186,0.0,0.0,96,0.00,,SCT031,0.00,VWS V13.01,2013-03-31 11:08:00,
2013-03-31 06:13:00,60.4,59.3,29.98,South,186,0.0,1.0,96,0.00,,SCT031,0.00,VWS V13.01,2013-03-31 11:13:00,
2013-03-31 06:18:00,60.5,59.4,29.98,South,186,0.0,0.0,96,0.00,,SCT031,0.00,VWS V13.01,2013-03-31 11:18:00,
2013-03-31 06:23:00,60.6,59.5,29.99,South,186,0.0,0.0,96,0.00,,SCT031,0.00,VWS V13.01,2013-03-31 11:23:00,
2013-03-31 06:29:00,60.6,59.5,29.99,South,186,0.0,0.0,96,0.00,,SCT031,0.00,VWS V13.01,2013-03-31 11:29:00,
2013-03-31 06:34:00,60.7,59.6,29.99,South,186,0.0,0.0,96,0.00,,BKN011,0.00,VWS V13.01,2013-03-31 11:34:00,
2013-03-31 06:39:00,60.8,59.7,29.99,South,186,0.0,0.0,96,0.00,,BKN011,0.00,VWS V13.01,2013-03-31 11:39:00,
2013-03-31 06:44:00,60.8,59.7,29.99,South,186,0.0,2.0,96,0.00,,BKN011,0.00,VWS V13.01,2013-03-31 11:44:00,
2013-03-31 06:49:00,60.9,59.8,29.99,South,186,0.0,0.0,96,0.00,,BKN011,0.00,VWS V13.01,2013-03-31 11:49:00,
2013-03-31 06:54:00,61.0,59.9,29.99,South,186,0.0,0.0,96,0.00,,BKN011,0.00,VWS V13.01,2013-03-31 11:54:00,
2013-03-31 06:59:00,61.1,60.0,29.99,South,186,0.0,0.0,96,0.00,,BKN011,0.00,VWS V13.01,2013-03-31 11:59:00,
2013-03-31 07:04:00,61.2,60.0,29.99,South,186,0.0,0.0,96,0.00,,,0.00,VWS V13.01,2013-03-31 12:04:00,
2013-03-31 07:09:00,61.3,60.2,29.99,South,186,1.0,2.0,96,0.00,,,0.00,VWS V13.01,2013-03-31 12:09:00,
2013-03-31 07:15:00,61.5,60.3,29.99,South,186,0.0,3.0,96,0.00,,,0.00,VWS V13.01,2013-03-31 12:15:00,
2013-03-31 07:20:00,61.7,60.5,29.99,South,188,0.0,1.0,96,0.00,,,0.00,VWS V13.01,2013-03-31 12:20:00,
2013-03-31 07:25:00,61.9,60.8,29.99,South,188,0.0,2.0,96,0.00,,,0.00,VWS V13.01,2013-03-31 12:25:00,
2013-03-31 07:30:00,62.0,60.8,29.99,South,188,0.0,2.0,96,0.00,,,0.00,VWS V13.01,2013-03-31 12:30:00,
2013-03-31 07:35:00,62.1,61.0,29.99,South,188,0.0,2.0,96,0.00,,,0.00,VWS V13.01,2013-03-31 12:35:00,
2013-03-31 07:40:00,62.2,61.0,29.99,South,188,0.0,2.0,96,0.00,,,0.00,VWS V13.01,2013-03-31 12:40:00,
2013-03-31 07:45:00,62.4,61.2,30.00,South,188,0.0,4.0,96,0.00,,,0.00,VWS V13.01,2013-03-31 12:45:00,
2013-03-31 07:50:00,62.7,61.5,29.99,South,188,0.0,3.0,96,0.00,,,0.00,VWS V13.01,2013-03-31 12:50:00,
2013-03-31 07:55:00,62.9,61.8,30.00,South,188,1.0,3.0,96,0.00,,,0.00,VWS V13.01,2013-03-31 12:55:00,
2013-03-31 08:00:00,63.1,61.9,30.00,South,188,0.0,3.0,96,0.00,,,0.00,VWS V13.01,2013-03-31 13:00:00,
2013-03-31 08:05:00,63.4,62.2,30.00,SSW,194,0.0,4.0,96,0.00,,,0.00,VWS V13.01,2013-03-31 13:05:00,
2013-03-31 08:10:00,63.6,62.4,30.00,SSW,194,0.0,4.0,96,0.00,,,0.00,VWS V13.01,2013-03-31 13:10:00,
2013-03-31 08:15:00,63.8,62.6,30.01,SSW,194,2.0,4.0,96,0.00,,,0.00,VWS V13.01,2013-03-31 13:15:00,
2013-03-31 08:20:00,64.0,62.8,30.01,SSW,207,0.0,0.0,96,0.00,,,0.00,VWS V13.01,2013-03-31 13:20:00,
2013-03-31 08:25:00,64.1,62.9,30.01,SSW,207,0.0,5.0,96,0.00,,,0.00,VWS V13.01,2013-03-31 13:25:00,
2013-03-31 08:30:00,64.2,63.0,30.00,SSW,207,0.0,5.0,96,0.00,,,0.00,VWS V13.01,2013-03-31 13:30:00,
2013-03-31 08:35:00,64.3,63.1,30.00,SSW,207,0.0,0.0,96,0.00,,,0.00,VWS V13.01,2013-03-31 13:35:00,
2013-03-31 08:40:00,64.6,63.4,30.01,SSW,207,0.0,1.0,96,0.00,,,0.00,VWS V13.01,2013-03-31 13:40:00,
2013-03-31 08:46:00,64.9,63.7,30.01,SSW,207,0.0,1.0,96,0.00,,,0.00,VWS V13.01,2013-03-31 13:46:00,
2013-03-31 08:51:00,65.1,63.9,30.00,SSW,205,0.0,4.0,96,0.00,,,0.00,VWS V13.01,2013-03-31 13:51:00,
2013-03-31 08:56:00,65.4,64.2,30.00,SSW,205,0.0,4.0,96,0.00,,,0.00,VWS V13.01,2013-03-31 13:56:00,
2013-03-31 09:01:00,65.7,64.5,30.00,SSW,205,0.0,4.0,96,0.00,,,0.00,VWS V13.01,2013-03-31 14:01:00,
2013-03-31 09:06:00,65.9,64.4,30.00,SSW,205,0.0,3.0,95,0.00,,,0.00,VWS V13.01,2013-03-31 14:06:00,
2013-03-31 09:11:00,66.2,64.7,30.00,SSW,205,0.0,3.0,95,0.00,,,0.00,VWS V13.01,2013-03-31 14:11:00,
2013-03-31 09:16:00,66.5,64.7,30.01,SSW,205,0.0,3.0,94,0.00,,,0.00,VWS V13.01,2013-03-31 14:16:00,
2013-03-31 09:21:00,66.7,64.9,30.01,SSW,205,0.0,3.0,94,0.00,,,0.00,VWS V13.01,2013-03-31 14:21:00,
2013-03-31 09:26:00,67.1,65.0,30.01,SW,214,0.0,4.0,93,0.00,,,0.00,VWS V13.01,2013-03-31 14:26:00,
2013-03-31 09:32:00,67.4,65.0,30.01,SW,214,0.0,4.0,92,0.00,,,0.00,VWS V13.01,2013-03-31 14:32:00,
2013-03-31 09:37:00,67.6,64.9,30.00,SSW,211,0.0,5.0,91,0.00,,,0.00,VWS V13.01,2013-03-31 14:37:00,
2013-03-31 09:42:00,67.8,65.1,30.00,SSW,211,0.0,5.0,91,0.00,,,0.00,VWS V13.01,2013-03-31 14:42:00,
2013-03-31 09:47:00,68.1,65.1,30.00,SSW,211,0.0,0.0,90,0.00,,,0.00,VWS V13.01,2013-03-31 14:47:00,
2013-03-31 09:52:00,68.5,65.1,30.00,SSW,211,0.0,1.0,89,0.00,,,0.00,VWS V13.01,2013-03-31 14:52:00,
2013-03-31 09:57:00,68.8,65.1,30.00,SSW,213,0.0,1.0,88,0.00,,,0.00,VWS V13.01,2013-03-31 14:57:00,
2013-03-31 10:02:00,69.4,65.7,29.99,SSW,212,0.0,2.0,88,0.00,,,0.00,VWS V13.01,2013-03-31 15:02:00,
2013-03-31 10:07:00,69.7,65.3,29.99,SSW,192,3.0,6.0,86,0.00,,BKN250,0.00,VWS V13.01,2013-03-31 15:07:00,
2013-03-31 10:12:00,69.9,64.8,29.99,SSW,205,1.0,6.0,84,0.00,,BKN250,0.00,VWS V13.01,2013-03-31 15:12:00,
2013-03-31 10:17:00,69.8,64.8,29.99,SSW,197,4.0,4.0,84,0.00,,BKN250,0.00,VWS V13.01,2013-03-31 15:17:00,
2013-03-31 10:22:00,69.8,65.1,29.99,SSW,198,0.0,5.0,85,0.00,,BKN250,0.00,VWS V13.01,2013-03-31 15:22:00,
2013-03-31 10:27:00,70.2,65.1,29.98,South,182,0.0,5.0,84,0.00,,BKN250,0.00,VWS V13.01,2013-03-31 15:27:00,
2013-03-31 10:32:00,70.5,65.1,29.99,South,183,2.0,3.0,83,0.00,,BKN250,0.00,VWS V13.01,2013-03-31 15:32:00,
2013-03-31 10:37:00,70.9,64.4,29.99,SSW,207,0.0,5.0,80,0.00,,BKN250,0.00,VWS V13.01,2013-03-31 15:37:00,
2013-03-31 10:43:00,71.1,64.6,29.99,SSW,198,0.0,5.0,80,0.00,,BKN250,0.00,VWS V13.01,2013-03-31 15:43:00,
2013-03-31 10:48:00,71.7,65.2,29.99,SSW,207,0.0,1.0,80,0.00,,BKN250,0.00,VWS V13.01,2013-03-31 15:48:00,
2013-03-31 10:53:00,72.2,64.6,29.99,SSW,207,2.0,2.0,77,0.00,,BKN250,0.00,VWS V13.01,2013-03-31 15:53:00,
2013-03-31 10:58:00,72.2,64.6,29.99,SSW,207,0.0,3.0,77,0.00,,BKN250,0.00,VWS V13.01,2013-03-31 15:58:00,
2013-03-31 11:03:00,72.3,64.7,29.99,SSW,207,0.0,0.0,77,0.00,,BKN250,0.00,VWS V13.01,2013-03-31 16:03:00,
2013-03-31 11:08:00,72.3,64.3,29.99,WNW,297,0.0,7.0,76,0.00,,BKN250,0.00,VWS V13.01,2013-03-31 16:08:00,
2013-03-31 11:13:00,73.1,64.3,29.99,SSW,203,0.0,7.0,74,0.00,,BKN250,0.00,VWS V13.01,2013-03-31 16:13:00,
2013-03-31 11:18:00,73.8,63.8,29.99,SSW,203,3.0,11.0,71,0.00,,BKN250,0.00,VWS V13.01,2013-03-31 16:18:00,
2013-03-31 11:23:00,74.0,64.4,29.98,South,188,0.0,11.0,72,0.00,,BKN250,0.00,VWS V13.01,2013-03-31 16:23:00,
2013-03-31 11:28:00,74.5,64.5,29.98,SSW,194,0.0,11.0,71,0.00,,BKN250,0.00,VWS V13.01,2013-03-31 16:28:00,
2013-03-31 11:33:00,74.9,64.1,29.98,SW,218,1.0,7.0,69,0.00,,BKN250,0.00,VWS V13.01,2013-03-31 16:33:00,
2013-03-31 11:39:00,75.1,63.4,29.98,South,186,0.0,10.0,67,0.00,,BKN250,0.00,VWS V13.01,2013-03-31 16:39:00,
2013-03-31 11:44:00,75.1,63.8,29.98,SSW,202,0.0,10.0,68,0.00,,BKN250,0.00,VWS V13.01,2013-03-31 16:44:00,
2013-03-31 11:49:00,74.8,62.3,29.99,SSW,209,0.0,6.0,65,0.00,,BKN250,0.00,VWS V13.01,2013-03-31 16:49:00,
2013-03-31 11:54:00,75.0,63.7,29.98,SSW,205,3.0,9.0,68,0.00,,BKN250,0.00,VWS V13.01,2013-03-31 16:54:00,
2013-03-31 11:59:00,75.0,62.9,29.98,SSW,207,0.0,10.0,66,0.00,,BKN250,0.00,VWS V13.01,2013-03-31 16:59:00,
2013-03-31 12:04:00,75.4,63.3,29.97,SSW,205,0.0,5.0,66,0.00,,BKN250,0.00,VWS V13.01,2013-03-31 17:04:00,
2013-03-31 12:09:00,75.5,62.9,29.98,SSW,198,0.0,7.0,65,0.00,,BKN250,0.00,VWS V13.01,2013-03-31 17:09:00,
2013-03-31 12:14:00,75.4,63.3,29.97,SSW,195,3.0,7.0,66,0.00,,BKN250,0.00,VWS V13.01,2013-03-31 17:14:00,
2013-03-31 12:19:00,75.4,62.8,29.97,SSW,209,0.0,9.0,65,0.00,,BKN250,0.00,VWS V13.01,2013-03-31 17:19:00,
2013-03-31 12:24:00,75.1,62.1,29.97,SSW,203,3.0,9.0,64,0.00,,BKN250,0.00,VWS V13.01,2013-03-31 17:24:00,
2013-03-31 12:29:00,74.9,61.5,29.97,SSW,204,0.0,9.0,63,0.00,,BKN250,0.00,VWS V13.01,2013-03-31 17:29:00,
2013-03-31 12:34:00,75.2,62.2,29.97,SW,215,0.0,10.0,64,0.00,,BKN250,0.00,VWS V13.01,2013-03-31 17:34:00,
2013-03-31 12:40:00,75.8,62.8,29.96,SE,146,0.0,10.0,64,0.00,,BKN250,0.00,VWS V13.01,2013-03-31 17:40:00,
2013-03-31 12:45:00,76.5,63.0,29.96,SSW,205,2.0,14.0,63,0.00,,BKN250,0.00,VWS V13.01,2013-03-31 17:45:00,
2013-03-31 12:50:00,76.9,62.9,29.96,SSW,202,5.0,10.0,62,0.00,,BKN250,0.00,VWS V13.01,2013-03-31 17:50:00,
2013-03-31 12:55:00,76.7,61.3,29.96,SSW,204,0.0,10.0,59,0.00,,BKN250,0.00,VWS V13.01,2013-03-31 17:55:00,
2013-03-31 13:00:00,76.2,61.8,29.96,SSW,198,0.0,11.0,61,0.00,,BKN250,0.00,VWS V13.01,2013-03-31 18:00:00,
2013-03-31 13:05:00,75.9,62.9,29.95,SW,219,4.0,13.0,64,0.00,,BKN250,0.00,VWS V13.01,2013-03-31 18:05:00,
2013-03-31 13:10:00,76.0,62.5,29.95,SSW,198,0.0,13.0,63,0.00,,BKN250,0.00,VWS V13.01,2013-03-31 18:10:00,
2013-03-31 13:15:00,76.6,62.6,29.95,SW,217,0.0,13.0,62,0.00,,BKN250,0.00,VWS V13.01,2013-03-31 18:15:00,
2013-03-31 13:20:00,76.7,63.2,29.94,SSW,212,6.0,10.0,63,0.00,,BKN250,0.00,VWS V13.01,2013-03-31 18:20:00,
2013-03-31 13:26:00,76.4,62.9,29.95,SSW,192,0.0,10.0,63,0.00,,BKN250,0.00,VWS V13.01,2013-03-31 18:26:00,
2013-03-31 13:31:00,76.1,63.5,29.95,SSW,197,0.0,11.0,65,0.00,,BKN250,0.00,VWS V13.01,2013-03-31 18:31:00,
2013-03-31 13:36:00,76.5,62.5,29.94,SSW,207,5.0,9.0,62,0.00,,BKN250,0.00,VWS V13.01,2013-03-31 18:36:00,
2013-03-31 13:41:00,76.1,62.6,29.94,SSW,205,2.0,10.0,63,0.00,,BKN250,0.00,VWS V13.01,2013-03-31 18:41:00,
2013-03-31 13:47:00,76.2,62.7,29.93,SSW,204,0.0,5.0,63,0.00,,BKN250,0.00,VWS V13.01,2013-03-31 18:47:00,
2013-03-31 13:53:00,76.2,62.7,29.93,SSW,202,2.0,10.0,63,0.00,,BKN250,0.00,VWS V13.01,2013-03-31 18:53:00,
2013-03-31 14:07:00,77.6,62.6,29.93,SW,219,0.0,12.0,60,0.00,,BKN250,0.00,VWS V13.01,2013-03-31 19:07:00,
2013-03-31 14:13:00,77.7,61.8,29.93,SSW,211,2.0,12.0,58,0.00,,BKN250,0.00,VWS V13.01,2013-03-31 19:13:00,
2013-03-31 14:17:00,77.3,61.4,29.93,SSW,205,3.0,10.0,58,0.00,,BKN250,0.00,VWS V13.01,2013-03-31 19:17:00,
2013-03-31 14:23:00,76.9,61.5,29.93,South,186,5.0,13.0,59,0.00,,BKN250,0.00,VWS V13.01,2013-03-31 19:23:00,
2013-03-31 14:28:00,77.1,61.7,29.93,SSW,199,6.0,13.0,59,0.00,,BKN250,0.00,VWS V13.01,2013-03-31 19:28:00,
2013-03-31 14:33:00,77.1,61.2,29.93,SW,218,6.0,14.0,58,0.00,,FEW039,0.00,VWS V13.01,2013-03-31 19:33:00,
2013-03-31 14:38:00,77.0,61.6,29.93,South,190,5.0,14.0,59,0.00,,FEW039,0.00,VWS V13.01,2013-03-31 19:38:00,
2013-03-31 14:43:00,77.0,63.0,29.92,SSW,199,7.0,14.0,62,0.00,,FEW039,0.00,VWS V13.01,2013-03-31 19:43:00,
2013-03-31 14:48:00,77.1,63.1,29.92,South,184,5.0,7.0,62,0.00,,FEW039,0.00,VWS V13.01,2013-03-31 19:48:00,
2013-03-31 14:53:00,76.9,63.4,29.92,SW,214,3.0,10.0,63,0.00,,FEW039,0.00,VWS V13.01,2013-03-31 19:53:00,
2013-03-31 14:58:00,76.8,63.3,29.92,SW,216,6.0,11.0,63,0.00,,FEW039,0.00,VWS V13.01,2013-03-31 19:58:00,
2013-03-31 15:03:00,76.2,63.1,29.92,SSW,205,5.0,12.0,64,0.00,,SCT070,0.00,VWS V13.01,2013-03-31 20:03:00,
2013-03-31 15:08:00,76.1,63.9,29.92,SSW,211,3.0,12.0,66,0.00,,SCT070,0.00,VWS V13.01,2013-03-31 20:08:00,
2013-03-31 15:13:00,75.7,63.5,29.92,SSW,198,4.0,18.0,66,0.00,,SCT070,0.00,VWS V13.01,2013-03-31 20:13:00,
2013-03-31 15:19:00,75.6,64.3,29.92,SW,222,4.0,10.0,68,0.00,,SCT070,0.00,VWS V13.01,2013-03-31 20:19:00,
2013-03-31 15:24:00,75.2,64.3,29.92,SSW,207,4.0,10.0,69,0.00,,SCT070,0.00,VWS V13.01,2013-03-31 20:24:00,
2013-03-31 15:29:00,74.8,64.0,29.92,SSW,199,2.0,10.0,69,0.00,,SCT070,0.00,VWS V13.01,2013-03-31 20:29:00,
2013-03-31 15:34:00,74.6,64.2,29.92,South,189,0.0,10.0,70,0.00,,SCT070,0.00,VWS V13.01,2013-03-31 20:34:00,
2013-03-31 15:39:00,74.8,63.1,29.91,SSW,198,2.0,10.0,67,0.00,,SCT070,0.00,VWS V13.01,2013-03-31 20:39:00,
2013-03-31 15:44:00,74.7,63.5,29.91,SSW,205,3.0,10.0,68,0.00,,SCT070,0.00,VWS V13.01,2013-03-31 20:44:00,
2013-03-31 15:49:00,74.5,63.7,29.91,South,187,6.0,11.0,69,0.00,,SCT070,0.00,VWS V13.01,2013-03-31 20:49:00,
2013-03-31 15:54:00,74.4,64.4,29.91,SSW,194,4.0,11.0,71,0.00,,SCT070,0.00,VWS V13.01,2013-03-31 20:54:00,
2013-03-31 15:59:00,74.4,64.4,29.90,SSW,196,3.0,12.0,71,0.00,,SCT070,0.00,VWS V13.01,2013-03-31 20:59:00,
2013-03-31 16:04:00,74.7,64.7,29.90,SSW,202,0.0,12.0,71,0.00,,SCT040,0.00,VWS V13.01,2013-03-31 21:04:00,
2013-03-31 16:09:00,74.7,64.3,29.90,SSW,213,3.0,12.0,70,0.00,,SCT040,0.00,VWS V13.01,2013-03-31 21:09:00,
2013-03-31 16:14:00,74.4,64.0,29.90,SSW,205,5.0,13.0,70,0.00,,SCT040,0.00,VWS V13.01,2013-03-31 21:14:00,
2013-03-31 16:19:00,74.1,63.7,29.89,SSW,210,2.0,7.0,70,0.00,,SCT040,0.00,VWS V13.01,2013-03-31 21:19:00,
2013-03-31 16:24:00,73.9,63.5,29.89,SSW,196,3.0,10.0,70,0.00,,SCT040,0.00,VWS V13.01,2013-03-31 21:24:00,
2013-03-31 16:29:00,73.9,64.3,29.88,South,172,0.0,16.0,72,0.00,,SCT040,0.00,VWS V13.01,2013-03-31 21:29:00,
2013-03-31 16:34:00,73.7,64.1,29.88,SE,144,0.0,5.0,72,0.00,,SCT040,0.00,VWS V13.01,2013-03-31 21:34:00,
2013-03-31 16:40:00,73.5,64.3,29.88,SSW,207,2.0,8.0,73,0.00,,SCT040,0.00,VWS V13.01,2013-03-31 21:40:00,
2013-03-31 16:45:00,73.4,64.2,29.89,South,190,6.0,9.0,73,0.00,,SCT040,0.00,VWS V13.01,2013-03-31 21:45:00,
2013-03-31 16:50:00,73.0,63.8,29.88,SW,227,0.0,9.0,73,0.00,,SCT040,0.00,VWS V13.01,2013-03-31 21:50:00,
2013-03-31 16:55:00,72.9,63.8,29.88,SSW,198,3.0,11.0,73,0.00,,SCT040,0.00,VWS V13.01,2013-03-31 21:55:00,
2013-03-31 17:00:00,72.8,63.7,29.87,SSW,206,0.0,12.0,73,0.00,,SCT040,0.00,VWS V13.01,2013-03-31 22:00:00,
2013-03-31 17:05:00,72.5,63.8,29.87,SSW,198,4.0,14.0,74,0.00,,FEW030,0.00,VWS V13.01,2013-03-31 22:05:00,
2013-03-31 17:10:00,72.1,63.4,29.88,South,188,3.0,14.0,74,0.00,,FEW030,0.00,VWS V13.01,2013-03-31 22:10:00,
2013-03-31 17:15:00,71.9,63.5,29.88,SSE,168,0.0,14.0,75,0.00,,FEW030,0.00,VWS V13.01,2013-03-31 22:15:00,
2013-03-31 17:20:00,71.6,63.3,29.88,SSW,195,0.0,7.0,75,0.00,,FEW030,0.00,VWS V13.01,2013-03-31 22:20:00,
2013-03-31 17:25:00,71.3,63.3,29.88,SW,232,9.0,10.0,76,0.00,,FEW030,0.00,VWS V13.01,2013-03-31 22:25:00,
2013-03-31 17:30:00,71.1,63.2,29.88,SSW,209,4.0,11.0,76,0.00,,FEW030,0.00,VWS V13.01,2013-03-31 22:30:00,
2013-03-31 17:35:00,70.8,63.2,29.89,SSW,196,8.0,10.0,77,0.00,,FEW030,0.00,VWS V13.01,2013-03-31 22:35:00,
2013-03-31 17:40:00,70.5,63.3,29.89,SSW,194,1.0,10.0,78,0.00,,FEW030,0.00,VWS V13.01,2013-03-31 22:40:00,
2013-03-31 17:45:00,70.2,63.4,29.89,SSW,198,6.0,11.0,79,0.00,,FEW030,0.00,VWS V13.01,2013-03-31 22:45:00,
2013-03-31 17:50:00,70.0,63.2,29.89,SSW,205,4.0,7.0,79,0.00,,FEW030,0.00,VWS V13.01,2013-03-31 22:50:00,
2013-03-31 17:55:00,69.8,63.4,29.89,SSW,213,0.0,9.0,80,0.00,,FEW030,0.00,VWS V13.01,2013-03-31 22:55:00,
2013-03-31 18:00:00,69.6,63.5,29.90,SSW,202,1.0,9.0,81,0.00,,FEW030,0.00,VWS V13.01,2013-03-31 23:00:00,
2013-03-31 18:05:00,69.4,63.3,29.91,SSW,200,0.0,10.0,81,0.00,,SCT030,0.00,VWS V13.01,2013-03-31 23:05:00,
2013-03-31 18:10:00,69.3,63.6,29.91,SSW,203,0.0,10.0,82,0.00,,SCT030,0.00,VWS V13.01,2013-03-31 23:10:00,
2013-03-31 18:15:00,69.1,63.7,29.91,SW,221,0.0,10.0,83,0.00,,SCT030,0.00,VWS V13.01,2013-03-31 23:15:00,
2013-03-31 18:21:00,68.9,63.5,29.91,SW,214,1.0,6.0,83,0.00,,SCT030,0.00,VWS V13.01,2013-03-31 23:21:00,
2013-03-31 18:26:00,68.6,63.6,29.91,SSW,202,1.0,9.0,84,0.00,,SCT030,0.00,VWS V13.01,2013-03-31 23:26:00,
2013-03-31 18:31:00,68.5,63.8,29.91,SSW,209,0.0,9.0,85,0.00,,SCT030,0.00,VWS V13.01,2013-03-31 23:31:00,
2013-03-31 18:36:00,68.3,63.6,29.91,SSW,207,1.0,7.0,85,0.00,,SCT030,0.00,VWS V13.01,2013-03-31 23:36:00,
2013-03-31 18:42:00,68.1,63.4,29.91,SSW,213,4.0,8.0,85,0.00,,SCT030,0.00,VWS V13.01,2013-03-31 23:42:00,
2013-03-31 18:47:00,68.0,63.7,29.91,SSW,211,1.0,6.0,86,0.00,,SCT030,0.00,VWS V13.01,2013-03-31 23:47:00,
2013-03-31 18:52:00,67.9,63.9,29.91,SSW,198,6.0,6.0,87,0.00,,SCT030,0.00,VWS V13.01,2013-03-31 23:52:00,
2013-03-31 18:57:00,67.8,63.8,29.92,SW,217,0.0,6.0,87,0.00,,SCT030,0.00,VWS V13.01,2013-03-31 23:57:00,
2013-03-31 19:02:00,67.4,64.1,29.92,SSW,203,0.0,0.0,89,0.01,,-RA,0.01,VWS V13.01,2013-04-01 00:02:00,
2013-03-31 19:07:00,67.0,64.0,29.94,SW,227,0.0,7.0,90,0.02,,-RA,0.02,VWS V13.01,2013-04-01 00:07:00,
2013-03-31 19:12:00,66.1,62.1,29.95,WNW,296,0.0,7.0,87,0.05,,-RA,0.06,VWS V13.01,2013-04-01 00:12:00,
2013-03-31 19:17:00,65.0,61.4,29.94,NW,309,0.0,3.0,88,0.10,,-RA,0.11,VWS V13.01,2013-04-01 00:17:00,
2013-03-31 19:22:00,64.3,61.3,29.95,NW,309,0.0,3.0,90,0.15,,-RA,0.15,VWS V13.01,2013-04-01 00:22:00,
2013-03-31 19:27:00,63.7,61.0,29.95,NW,309,0.0,3.0,91,0.17,,-RA,0.17,VWS V13.01,2013-04-01 00:27:00,
2013-03-31 19:32:00,63.4,60.7,29.94,NW,309,0.0,0.0,91,0.20,,,0.20,VWS V13.01,2013-04-01 00:32:00,
2013-03-31 19:37:00,63.1,60.7,29.94,NW,309,0.0,0.0,92,0.22,,,0.22,VWS V13.01,2013-04-01 00:37:00,
2013-03-31 19:42:00,62.9,60.5,29.93,NW,309,0.0,0.0,92,0.24,,,0.24,VWS V13.01,2013-04-01 00:42:00,
2013-03-31 19:48:00,62.8,60.8,29.94,NW,309,0.0,0.0,93,0.25,,,0.26,VWS V13.01,2013-04-01 00:48:00,
2013-03-31 19:53:00,62.6,60.5,29.93,NW,309,0.0,0.0,93,0.26,,,0.26,VWS V13.01,2013-04-01 00:53:00,
2013-03-31 19:58:00,62.5,60.8,29.92,NW,309,0.0,0.0,94,0.27,,,0.27,VWS V13.01,2013-04-01 00:58:00,
2013-03-31 20:03:00,62.4,60.7,29.92,NW,309,0.0,0.0,94,0.26,,,0.27,VWS V13.01,2013-04-01 01:03:00,
2013-03-31 20:08:00,62.4,60.7,29.91,NW,309,0.0,1.0,94,0.27,,,0.28,VWS V13.01,2013-04-01 01:08:00,
2013-03-31 20:13:00,62.3,60.6,29.90,NW,309,0.0,3.0,94,0.27,,,0.28,VWS V13.01,2013-04-01 01:13:00,
2013-03-31 20:18:00,62.2,60.5,29.88,NW,309,0.0,1.0,94,0.18,,,0.28,VWS V13.01,2013-04-01 01:18:00,
2013-03-31 20:23:00,62.1,60.4,29.89,NW,309,0.0,1.0,94,0.18,,,0.28,VWS V13.01,2013-04-01 01:23:00,
2013-03-31 20:28:00,62.0,60.3,29.89,NW,309,2.0,2.0,94,0.18,,,0.28,VWS V13.01,2013-04-01 01:28:00,
2013-03-31 20:33:00,61.9,60.2,29.89,NW,309,0.0,0.0,94,0.10,,,0.29,VWS V13.01,2013-04-01 01:33:00,
2013-03-31 20:38:00,61.9,60.2,29.88,NW,309,0.0,4.0,94,0.10,,,0.29,VWS V13.01,2013-04-01 01:38:00,
2013-03-31 20:43:00,61.8,60.4,29.88,NW,309,0.0,4.0,95,0.10,,,0.29,VWS V13.01,2013-04-01 01:43:00,
2013-03-31 20:48:00,61.8,60.4,29.88,NW,309,0.0,0.0,95,0.04,,,0.29,VWS V13.01,2013-04-01 01:48:00,
2013-03-31 20:53:00,61.7,60.3,29.88,NW,309,0.0,0.0,95,0.04,,,0.29,VWS V13.01,2013-04-01 01:53:00,
2013-03-31 20:58:00,61.6,60.2,29.88,NW,309,0.0,0.0,95,0.04,,,0.29,VWS V13.01,2013-04-01 01:58:00,
2013-03-31 21:03:00,61.6,60.2,29.88,NW,309,0.0,0.0,95,0.02,,OVC085,0.29,VWS V13.01,2013-04-01 02:03:00,
2013-03-31 21:08:00,61.5,60.1,29.88,NW,309,0.0,0.0,95,0.02,,OVC085,0.29,VWS V13.01,2013-04-01 02:08:00,
2013-03-31 21:13:00,61.5,60.1,29.87,NW,309,0.0,0.0,95,0.02,,OVC085,0.29,VWS V13.01,2013-04-01 02:13:00,
2013-03-31 21:19:00,61.5,60.1,29.88,NW,309,0.0,0.0,95,0.01,,OVC085,0.29,VWS V13.01,2013-04-01 02:19:00,
2013-03-31 21:24:00,61.5,60.1,29.89,NW,309,0.0,0.0,95,0.01,,OVC085,0.29,VWS V13.01,2013-04-01 02:24:00,
2013-03-31 21:29:00,61.4,60.0,29.89,NW,309,0.0,0.0,95,0.01,,OVC085,0.29,VWS V13.01,2013-04-01 02:29:00,
2013-03-31 21:34:00,61.4,60.0,29.89,NW,309,0.0,0.0,95,0.00,,OVC085,0.29,VWS V13.01,2013-04-01 02:34:00,
2013-03-31 21:39:00,61.4,60.0,29.89,NW,309,0.0,0.0,95,0.00,,OVC085,0.29,VWS V13.01,2013-04-01 02:39:00,
2013-03-31 21:44:00,61.4,60.0,29.89,NW,309,0.0,0.0,95,0.00,,OVC085,0.29,VWS V13.01,2013-04-01 02:44:00,
2013-03-31 21:49:00,61.4,60.0,29.89,NW,309,0.0,0.0,95,0.00,,OVC085,0.29,VWS V13.01,2013-04-01 02:49:00,
2013-03-31 21:54:00,61.4,60.0,29.89,NW,309,0.0,1.0,95,0.00,,OVC085,0.29,VWS V13.01,2013-04-01 02:54:00,
2013-03-31 21:59:00,61.4,60.0,29.90,NW,309,0.0,1.0,95,0.00,,OVC085,0.29,VWS V13.01,2013-04-01 02:59:00,
2013-03-31 22:04:00,61.4,60.0,29.90,NW,309,0.0,0.0,95,0.00,,OVC120,0.29,VWS V13.01,2013-04-01 03:04:00,
2013-03-31 22:10:00,61.3,59.9,29.90,NW,309,0.0,0.0,95,0.00,,OVC120,0.29,VWS V13.01,2013-04-01 03:10:00,
2013-03-31 22:15:00,61.2,59.8,29.90,NW,309,0.0,0.0,95,0.00,,OVC120,0.29,VWS V13.01,2013-04-01 03:15:00,
2013-03-31 22:20:00,61.1,59.7,29.90,NW,309,0.0,0.0,95,0.00,,OVC120,0.29,VWS V13.01,2013-04-01 03:20:00,
2013-03-31 22:25:00,61.1,59.7,29.90,NW,309,0.0,0.0,95,0.00,,OVC120,0.29,VWS V13.01,2013-04-01 03:25:00,
2013-03-31 22:30:00,61.0,59.6,29.90,NW,309,0.0,1.0,95,0.00,,OVC120,0.29,VWS V13.01,2013-04-01 03:30:00,
2013-03-31 22:35:00,61.0,59.6,29.90,NW,309,0.0,0.0,95,0.00,,OVC120,0.29,VWS V13.01,2013-04-01 03:35:00,
2013-03-31 22:40:00,61.0,59.6,29.90,NW,309,0.0,0.0,95,0.00,,OVC120,0.29,VWS V13.01,2013-04-01 03:40:00,
2013-03-31 22:45:00,60.9,59.5,29.90,NW,309,0.0,0.0,95,0.00,,OVC120,0.29,VWS V13.01,2013-04-01 03:45:00,
2013-03-31 22:50:00,60.8,59.4,29.90,NW,309,0.0,1.0,95,0.00,,OVC120,0.29,VWS V13.01,2013-04-01 03:50:00,
2013-03-31 22:55:00,60.7,59.3,29.90,NW,309,0.0,1.0,95,0.00,,OVC120,0.29,VWS V13.01,2013-04-01 03:55:00,
2013-03-31 23:00:00,60.6,59.2,29.90,NW,309,0.0,1.0,95,0.00,,OVC120,0.29,VWS V13.01,2013-04-01 04:00:00,
2013-03-31 23:01:00,60.6,59.2,29.90,NW,309,0.0,1.0,95,0.00,,OVC120,0.29,VWS V13.01,2013-04-01 04:01:00,
2013-03-31 23:07:00,60.5,59.1,29.90,NW,309,0.0,0.0,95,0.00,,FEW100,0.29,VWS V13.01,2013-04-01 04:07:00,
2013-03-31 23:12:00,60.5,59.4,29.90,NW,309,0.0,0.0,96,0.00,,FEW100,0.29,VWS V13.01,2013-04-01 04:12:00,
2013-03-31 23:14:00,60.4,59.3,29.89,NW,309,0.0,0.0,96,0.00,,FEW100,0.29,VWS V13.01,2013-04-01 04:14:00,
2013-03-31 23:19:00,60.4,59.3,29.89,NW,309,0.0,0.0,96,0.00,,FEW100,0.29,VWS V13.01,2013-04-01 04:19:00,
2013-03-31 23:24:00,60.4,59.0,29.90,NW,309,0.0,0.0,95,0.00,,FEW100,0.29,VWS V13.01,2013-04-01 04:24:00,
2013-03-31 23:29:00,60.2,58.8,29.90,NW,309,0.0,0.0,95,0.00,,FEW100,0.29,VWS V13.01,2013-04-01 04:29:00,
2013-03-31 23:34:00,60.1,58.7,29.90,NW,309,0.0,0.0,95,0.00,,FEW100,0.29,VWS V13.01,2013-04-01 04:34:00,
2013-03-31 23:39:00,60.0,58.6,29.90,NW,309,0.0,0.0,95,0.00,,FEW100,0.29,VWS V13.01,2013-04-01 04:39:00,
2013-03-31 23:44:00,60.0,58.9,29.91,NW,309,0.0,0.0,96,0.00,,FEW100,0.29,VWS V13.01,2013-04-01 04:44:00,
2013-03-31 23:49:00,60.0,58.9,29.90,NW,309,0.0,0.0,96,0.00,,FEW100,0.29,VWS V13.01,2013-04-01 04:49:00,
2013-03-31 23:54:00,59.9,58.8,29.91,NW,309,0.0,0.0,96,0.00,,FEW100,0.29,VWS V13.01,2013-04-01 04:54:00,
2013-03-31 23:59:00,60.0,58.9,29.91,NW,309,1.0,2.0,96,0.00,,FEW100,0.29,VWS V13.01,2013-04-01 04:59:00,